Weather at Parkland Medical Center Heliport

Public forecast

Using degrees Fahrenheit for public forecast. Weather courtesy of forecast.io.

Closest aviation weather report (METAR) to Parkland Medical Center Heliport

Report is more than 6 hours old.

Closest report is Manchester-Boston Regional Airport, 6.3 nm (11.6 km) WNW.

2022/11/14 14:53 (retrieved 2 years ago)

KMHT 141453Z 32018G28KT 10SM SCT043 SCT250 03/M08 A3022 RMK AO2 PK WND 34028/1452 SLP249 6//// T00281083 51030 PNO

Closest aviation forecast (TAF) to Parkland Medical Center Heliport

Forecast is more than 12 hours old.

Closest forecast is Manchester-Boston Regional Airport, 6.3 nm (11.6 km) WNW.

2023/02/22 18:39 (retrieved 1 year ago)

TAF KMHT 221737Z 2218/2318 31006KT P6SM SCT040 BKN200 FM230000 00000KT 6SM -SHSN OVC030 FM230300 VRB03KT 2SM -SN OVC025 FM230600 07006KT 3SM -SNPL OVC007 FM231600 04008G16KT 3SM -SHSN OVC020